Central Oregon RPC :: CEDARVILLE B

liberation: 2020-08-22  07:30     latitude: 41.558500     longitude: -120.395100 144 birds
# LOFT PRING MILES ARRIVAL SPEED ToWin
1 ROCKY TOP AU20-CORP-4463 188.649 2020-08-22 11:31:10.635 1376.675 00:00:00
2 ROCKY TOP AU20-CORP-4403 188.649 2020-08-22 11:31:14.907 1376.269 00:00:04
3 TOPIGEONUSA AU20-CORP-4373 195.356 2020-08-22 11:40:35.438 1372.064 00:00:50
4 STEELE LOFT AU20-CORP-5088 195.588 2020-08-22 11:41:21.371 1369.512 00:01:18
5 STEELE LOFT AU20-CORP-5008 195.588 2020-08-22 11:41:25.497 1369.137 00:01:23
6 STEELE LOFT AU20-CORP-5011 195.588 2020-08-22 11:41:48.300 1367.071 00:01:45
7 ROCKY TOP AU20-TAC-2786 188.649 2020-08-22 11:34:05.080 1360.277 00:02:54
8 ROCKY TOP AU20-CORP-4411 188.649 2020-08-22 11:34:05.469 1360.241 00:02:55
9 ROCKY TOP AU20-CORP-4400 188.649 2020-08-22 11:34:06.662 1360.130 00:02:56
10 ROCKY TOP AU20-CORP-4442 188.649 2020-08-22 11:34:15.179 1359.340 00:03:05
11 ROCKY TOP AU20-CORP-4420 188.649 2020-08-22 11:34:16.951 1359.175 00:03:06
12 ROCKY TOP AU20-PNW-2503 188.649 2020-08-22 11:34:19.680 1358.922 00:03:09
13 ROCKY TOP AU20-CORP-4405 188.649 2020-08-22 11:34:19.780 1358.913 00:03:09
14 ROCKY TOP AU20-CORP-4433 188.649 2020-08-22 11:34:23.218 1358.594 00:03:13
15 ROCKY TOP AU20-CORP-4432 188.649 2020-08-22 11:34:24.393 1358.486 00:03:14
16 ROCKY TOP AU20-CORP-4462 188.649 2020-08-22 11:34:26.280 1358.311 00:03:16
17 STEELE LOFT AU20-BORD-20064 195.588 2020-08-22 11:43:43.552 1356.721 00:03:41
18 STEELE LOFT AU20-BORD-20058 195.588 2020-08-22 11:43:43.677 1356.710 00:03:41
19 STEELE LOFT AU20-CORP-5083 195.588 2020-08-22 11:43:44.264 1356.658 00:03:41
20 STEELE LOFT AU20-BORD-20054 195.588 2020-08-22 11:43:45.590 1356.540 00:03:43
21 STEELE LOFT AU20-ARPU-37451 195.588 2020-08-22 11:43:47.338 1356.384 00:03:44
22 STEELE LOFT AU20-CORP-5085 195.588 2020-08-22 11:43:50.403 1356.111 00:03:48
23 STEELE LOFT AU20-CORP-5013 195.588 2020-08-22 11:43:51.944 1355.974 00:03:49
24 STEELE LOFT AU20-CORP-5041 195.588 2020-08-22 11:43:54.194 1355.774 00:03:51
25 STEELE LOFT IF20-EART-0056 195.588 2020-08-22 11:43:56.432 1355.574 00:03:54
26 ROCKY TOP AU20-CORP-4435 188.649 2020-08-22 11:35:04.468 1354.783 00:03:54
27 ROCKY TOP AU20-CORP-4455 188.649 2020-08-22 11:35:14.391 1353.870 00:04:04
28 ROCKY TOP AU20-CORP-4440 188.649 2020-08-22 11:35:14.790 1353.833 00:04:04
29 ROCKY TOP AU20-CORP-4441 188.649 2020-08-22 11:35:21.035 1353.259 00:04:10
30 ROCKY TOP AU20-TAC-2787 188.649 2020-08-22 11:35:23.262 1353.054 00:04:13
31 ROCKY TOP AU20-CORP-4452 188.649 2020-08-22 11:36:51.128 1345.027 00:05:40
32 ROCKY TOP AU20-GSC-1299 188.649 2020-08-22 11:36:55.734 1344.609 00:05:45
33 STEELE LOFT AU20-CORP-5035 195.588 2020-08-22 11:46:22.498 1342.702 00:06:20
34 STEELE LOFT AU20-ARPU-37452 195.588 2020-08-22 11:47:36.944 1336.235 00:07:34
35 STEELE LOFT AU20-BORD-20063 195.588 2020-08-22 11:47:44.477 1335.585 00:07:42
36 STEELE LOFT AU20-CORP-5003 195.588 2020-08-22 11:48:08.416 1333.520 00:08:06
37 STEELE LOFT AU20-JEDD-14782 195.588 2020-08-22 11:48:12.779 1333.145 00:08:10
38 TOPIGEONUSA AU20-CORP-4881 195.356 2020-08-22 11:48:26.962 1330.343 00:08:42
39 STEELE LOFT AU20-CORP-5014 195.588 2020-08-22 11:50:41.769 1320.446 00:10:39
40 RUETER FAMILY LOFT AU20-CORP-4555 223.008 2020-08-22 12:27:37.308 1318.767 00:12:31
41 STEELE LOFT AU20-CORP-5032 195.588 2020-08-22 11:52:47.291 1309.934 00:12:44
42 STEELE LOFT AU20-CORP-5029 195.588 2020-08-22 11:53:04.236 1308.528 00:13:01
43 STEELE LOFT AU20-CORP-5040 195.588 2020-08-22 11:53:10.709 1307.992 00:13:08
44 TOPIGEONUSA AU20-CORP-4389 195.356 2020-08-22 11:53:18.782 1305.771 00:13:34
45 ROCKY TOP AU20-CORP-4471 188.649 2020-08-22 11:45:29.692 1299.528 00:14:19
46 STEELE LOFT AU20-CORP-5004 195.588 2020-08-22 11:55:22.604 1297.157 00:15:20
47 STEELE LOFT AU20-CORP-5010 195.588 2020-08-22 11:55:35.057 1296.143 00:15:32
48 STEELE LOFT AU20-CORP-5007 195.588 2020-08-22 11:56:46.487 1290.359 00:16:44
49 TOPIGEONUSA AU20-CORP-4394 195.356 2020-08-22 11:56:27.699 1290.341 00:16:43
50 STEELE LOFT AU20-ARPU-37453 195.588 2020-08-22 11:56:47.640 1290.266 00:16:45
51 STEELE LOFT AU20-CORP-5039 195.588 2020-08-22 11:56:48.211 1290.220 00:16:45
52 STEELE LOFT AU20-CORP-5030 195.588 2020-08-22 11:56:48.574 1290.191 00:16:46
53 TOPIGEONUSA AU20-CORP-4374 195.356 2020-08-22 11:56:33.627 1289.863 00:16:49
54 STEELE LOFT AU20-CORP-5018 195.588 2020-08-22 11:56:55.302 1289.649 00:16:52
55 STEELE LOFT AU20-CORP-5015 195.588 2020-08-22 11:57:00.357 1289.242 00:16:57
56 STEELE LOFT AU20-CORP-5012 195.588 2020-08-22 11:57:11.221 1288.368 00:17:08
57 RUETER FAMILY LOFT AU20-CORP-4545 223.008 2020-08-22 12:35:14.738 1285.829 00:20:09
58 RUETER FAMILY LOFT AU20-CORP-4627 223.008 2020-08-22 12:35:25.976 1285.041 00:20:20
59 RUETER FAMILY LOFT AU20-CORP-4553 223.008 2020-08-22 12:35:30.019 1284.757 00:20:24
60 TOPIGEONUSA AU20-CORP-4360 195.356 2020-08-22 11:59:17.355 1276.792 00:19:32
61 TOPIGEONUSA AU20-CORP-4841 195.356 2020-08-22 11:59:29.213 1275.856 00:19:44
62 STEELE LOFT AU20-ARPU-37461 195.588 2020-08-22 12:02:55.462 1261.285 00:22:53
63 STEELE LOFT AU20-CORP-5016 195.588 2020-08-22 12:03:07.213 1260.380 00:23:04
64 AMERICAN LOFT AU20-CORP-5515 193.125 2020-08-22 12:02:35.626 1246.907 00:25:42
65 AMERICAN LOFT AU20-CORP-5449 193.125 2020-08-22 12:02:55.348 1245.406 00:26:01
66 AMERICAN LOFT AU20-CORP-5487 193.125 2020-08-22 12:03:02.566 1244.857 00:26:09
67 RUETER FAMILY LOFT AU20-CORP-4556 223.008 2020-08-22 12:57:51.219 1197.161 00:42:45
68 RUETER FAMILY LOFT AU20-CORP-4584 223.008 2020-08-22 12:57:57.334 1196.789 00:42:51
69 RUETER FAMILY LOFT AU20-CORP-4568 223.008 2020-08-22 12:58:05.450 1196.296 00:42:59
70 STEELE LOFT AU20-CORP-5084 195.588 2020-08-22 12:17:52.384 1195.788 00:37:49
71 RUETER FAMILY LOFT AU20-CORP-4550 223.008 2020-08-22 12:58:27.040 1194.985 00:43:21
72 TOPIGEONUSA AU20-CORP-4855 195.356 2020-08-22 12:20:46.078 1182.477 00:41:01
73 TOPIGEONUSA AU20-CORP-4863 195.356 2020-08-22 12:20:46.959 1182.417 00:41:02
74 TOPIGEONUSA AU20-CORP-4361 195.356 2020-08-22 12:20:47.606 1182.373 00:41:03
75 RUETER FAMILY LOFT AU20-CORP-4559 223.008 2020-08-22 13:02:36.278 1180.061 00:47:30
76 RUETER FAMILY LOFT AU20-CORP-4612 223.008 2020-08-22 13:04:22.133 1173.834 00:49:16
77 RUETER FAMILY LOFT AU20-CORP-4661 223.008 2020-08-22 13:07:23.439 1163.321 00:52:17
78 STEELE LOFT AU20-CORP-5021 195.588 2020-08-22 12:27:27.496 1157.256 00:47:25
79 TOPIGEONUSA AU20-CORP-5027 195.356 2020-08-22 12:28:37.263 1151.380 00:48:52
80 AMERICAN LOFT AU20-CORP-5441 193.125 2020-08-22 12:28:47.293 1137.592 00:51:53
81 TOPIGEONUSA AU20-CORP-4858 195.356 2020-08-22 12:35:07.406 1126.844 00:55:22
82 ROCKY TOP AU20-CORP-4451 188.649 2020-08-22 12:36:01.479 1084.954 01:04:51
83 ROCKY TOP AU20-CORP-4454 188.649 2020-08-22 12:36:06.164 1084.678 01:04:56
84 AMERICAN LOFT AU20-CORP-5452 193.125 2020-08-22 12:51:17.057 1057.939 01:14:23
85 AMERICAN LOFT AU20-CORP-5460 193.125 2020-08-22 12:51:33.779 1057.022 01:14:40
86 ROCKY TOP AU20-CORP-4456 188.649 2020-08-22 12:55:07.135 1021.235 01:23:56
87 STEELE LOFT AU20-CORP-5090 195.588 2020-08-22 13:09:18.263 1014.532 01:29:15
88 AMERICAN LOFT AU20-CORP-5421 193.125 2020-08-22 13:05:16.495 1013.792 01:28:23
89 RUETER FAMILY LOFT AU20-CORP-4649 223.008 2020-08-22 13:58:29.509 1010.301 01:43:23
90 RUETER FAMILY LOFT AU20-CORP-4529 223.008 2020-08-22 14:10:49.299 979.223 01:55:43
91 TOPIGEONUSA AU20-CORP-4370 195.356 2020-08-22 13:22:05.331 976.533 01:42:20
92 TOPIGEONUSA AU20-CORP-4371 195.356 2020-08-22 13:26:35.718 964.192 01:46:51
93 RUETER FAMILY LOFT AU20-CORP-4595 223.008 2020-08-22 14:38:32.734 915.874 02:23:27
94 RUETER FAMILY LOFT AU20-CORP-4625 223.008 2020-08-22 14:38:42.516 915.526 02:23:36
95 STEELE LOFT AU20-JEDD-14785 195.588 2020-08-22 13:51:07.233 903.219 02:11:04
96 RUETER FAMILY LOFT AU20-CORP-4518 223.008 2020-08-22 15:03:41.209 865.120 02:48:35
97 TOPIGEONUSA AU20-CORP-4363 195.356 2020-08-22 14:23:37.970 831.236 02:43:53
98 RUETER FAMILY LOFT AU20-CORP-4684 223.008 2020-08-22 15:28:35.028 820.115 03:13:29
99 RUETER FAMILY LOFT AU20-CORP-4587 223.008 2020-08-22 15:42:26.921 797.025 03:27:21
100 AMERICAN LOFT AU20-CORP-5431 193.125 2020-08-22 14:55:02.704 763.741 03:18:09
101 RUETER FAMILY LOFT AU20-CORP-4569 223.008 2020-08-22 16:44:40.844 707.603 04:29:35
102 RUETER FAMILY LOFT AU20-CORP-4570 223.008 2020-08-22 16:58:28.491 690.433 04:43:22
103 RUETER FAMILY LOFT AU20-CORP-4676 223.008 2020-08-22 16:58:57.442 689.847 04:43:51
104 STEELE LOFT AU20-JEDD-14784 195.588 2020-08-22 15:57:52.576 677.794 04:17:50
105 RUETER FAMILY LOFT AU20-CORP-4663 223.008 2020-08-22 17:32:49.127 651.097 05:17:43
106 ROCKY TOP AU20-CORP-4472 188.649 2020-08-22 17:09:55.624 572.525 05:38:45
107 AMERICAN LOFT AU20-CORP-5519 193.125 2020-08-22 17:27:25.574 568.939 05:50:32
108 RUETER FAMILY LOFT AU20-CORP-4683 223.008 2020-08-22 19:21:19.679 551.776 07:06:14
109 AMERICAN LOFT AU20-CORP-5424 193.125 2020-08-22 18:12:26.682 529.071 06:35:33
110 ROCKY TOP AU20-ARPU-28107 188.649 2020-08-22 18:28:19.570 504.344 06:57:09
111 AMERICAN LOFT AU20-CORP-5481 193.125 2020-08-22 18:54:22.374 496.658 07:17:28
112 RUETER FAMILY LOFT AU20-CORP-4635 223.008 2020-08-23 07:50:06.282 440.548 10:05:49
113 RUETER FAMILY LOFT AU20-CORP-4646 223.008 2020-08-23 09:04:43.897 406.498 11:20:27
114 RUETER FAMILY LOFT AU20-CORP-4579 223.008 2020-08-23 09:05:41.052 406.098 11:21:24
115 STEELE LOFT AU20-JEDD-14775 195.588 2020-08-23 07:22:45.752 398.615 10:13:32
116 AMERICAN LOFT AU20-CORP-5513 193.125 2020-08-23 07:22:46.306 393.589 10:16:41
117 STEELE LOFT AU20-JEDD-14774 195.588 2020-08-23 07:34:11.164 393.411 10:24:57
118 RUETER FAMILY LOFT AU20-CORP-4572 223.008 2020-08-23 10:09:34.384 380.918 12:25:17
119 ROCKY TOP AU20-CORP-4475 188.649 2020-08-23 07:40:57.717 376.538 10:40:36
120 STEELE LOFT AU20-ARPU-37455 195.588 2020-08-23 08:33:41.566 368.359 11:24:28
121 STEELE LOFT AU20-CORP-5064 195.588 2020-08-23 08:33:46.738 368.325 11:24:33
122 STEELE LOFT AU20-CORP-5038 195.588 2020-08-23 09:10:50.577 354.276 12:01:37
123 STEELE LOFT AU20-CORP-5034 195.588 2020-08-23 09:11:00.718 354.214 12:01:47
AMERICAN LOFT AU20-CORP-5461 0 0000-00-00 00:00:00.000 0.000 00:00:00
AMERICAN LOFT AU20-CORP-5482 0 0000-00-00 00:00:00.000 0.000 00:00:00
AMERICAN LOFT AU20-CORP-5508 0 0000-00-00 00:00:00.000 0.000 00:00:00
ROCKY TOP AU20-ARPU-28106 0 0000-00-00 00:00:00.000 0.000 00:00:00
ROCKY TOP AU20-CORP-4416 0 0000-00-00 00:00:00.000 0.000 00:00:00
ROCKY TOP AU20-CORP-4422 0 0000-00-00 00:00:00.000 0.000 00:00:00
ROCKY TOP AU20-TAC-2754 0 0000-00-00 00:00:00.000 0.000 00:00:00
RUETER FAMILY LOFT AU20-CORP-4516 0 0000-00-00 00:00:00.000 0.000 00:00:00
RUETER FAMILY LOFT AU20-CORP-4530 0 0000-00-00 00:00:00.000 0.000 00:00:00
RUETER FAMILY LOFT AU20-CORP-4603 0 0000-00-00 00:00:00.000 0.000 00:00:00
RUETER FAMILY LOFT AU20-CORP-4623 0 0000-00-00 00:00:00.000 0.000 00:00:00
RUETER FAMILY LOFT AU20-CORP-4626 0 0000-00-00 00:00:00.000 0.000 00:00:00
RUETER FAMILY LOFT AU20-CORP-4682 0 0000-00-00 00:00:00.000 0.000 00:00:00
STEELE LOFT AU20-CORP-5002 0 0000-00-00 00:00:00.000 0.000 00:00:00
STEELE LOFT AU20-CORP-5006 0 0000-00-00 00:00:00.000 0.000 00:00:00
STEELE LOFT AU20-CORP-5022 0 0000-00-00 00:00:00.000 0.000 00:00:00
STEELE LOFT AU20-CORP-5033 0 0000-00-00 00:00:00.000 0.000 00:00:00
STEELE LOFT IF20-EART-0053 0 0000-00-00 00:00:00.000 0.000 00:00:00
TOPIGEONUSA AU20-CORP-4385 0 0000-00-00 00:00:00.000 0.000 00:00:00
TOPIGEONUSA AU20-CORP-4386 0 0000-00-00 00:00:00.000 0.000 00:00:00
TOPIGEONUSA AU20-CORP-4390 0 0000-00-00 00:00:00.000 0.000 00:00:00